createdAt,value
2022-09-10T00:01:19.386Z,3.85
2022-09-10T00:03:48.924Z,4.35
2022-09-10T00:06:16.715Z,3.30
2022-09-10T00:08:44.262Z,2.92
2022-09-10T00:11:12.188Z,3.63
2022-09-10T00:13:40.812Z,3.47
2022-09-10T00:16:13.861Z,5.57
2022-09-10T00:18:41.812Z,3.42
2022-09-10T00:21:12.532Z,3.22
2022-09-10T00:23:40.060Z,3.15
2022-09-10T00:26:15.498Z,4.03
2022-09-10T00:28:43.267Z,3.95
2022-09-10T00:31:11.140Z,4.68
2022-09-10T00:33:38.383Z,4.47
2022-09-10T00:36:14.249Z,3.40
2022-09-10T00:38:41.244Z,4.53
2022-09-10T00:41:08.826Z,2.58
2022-09-10T00:43:52.711Z,4.22
2022-09-10T00:46:46.927Z,3.50
2022-09-10T00:49:21.544Z,2.53
2022-09-10T00:51:52.716Z,4.93
2022-09-10T00:54:24.346Z,4.20
2022-09-10T00:56:53.659Z,3.03
2022-09-10T00:59:23.857Z,2.38
2022-09-10T01:01:50.877Z,3.67
2022-09-10T01:04:18.141Z,2.55
2022-09-10T01:06:46.281Z,6.18
2022-09-10T01:09:14.964Z,2.92
2022-09-10T01:12:04.458Z,4.53
2022-09-10T01:14:53.633Z,3.45
2022-09-10T01:17:29.946Z,4.80
2022-09-10T01:20:09.123Z,3.97
2022-09-10T01:23:17.644Z,4.35
2022-09-10T01:26:27.342Z,3.85
2022-09-10T01:29:35.836Z,3.35
2022-09-10T01:32:09.724Z,3.50
2022-09-10T01:34:47.327Z,4.35
2022-09-10T01:37:30.314Z,3.25
2022-09-10T01:39:59.297Z,3.10
2022-09-10T01:42:27.574Z,2.55
2022-09-10T01:44:58.188Z,5.00
2022-09-10T01:47:31.291Z,3.78
2022-09-10T01:50:20.958Z,4.03
2022-09-10T01:53:14.318Z,3.58
2022-09-10T01:55:51.811Z,4.10
2022-09-10T01:58:20.360Z,4.30
2022-09-10T02:01:15.099Z,3.33
2022-09-10T02:03:47.002Z,3.75
2022-09-10T02:06:19.996Z,4.72
2022-09-10T02:08:49.694Z,2.85
2022-09-10T02:11:16.664Z,3.58
2022-09-10T02:13:43.669Z,3.15
2022-09-10T02:16:17.065Z,4.45
2022-09-10T02:18:44.268Z,5.93
2022-09-10T02:21:12.325Z,5.05
2022-09-10T02:23:54.234Z,2.92
2022-09-10T02:26:21.234Z,4.78
2022-09-10T02:28:49.724Z,4.75
2022-09-10T02:31:18.767Z,4.38
2022-09-10T02:33:45.878Z,5.05
2022-09-10T02:36:12.802Z,4.45
2022-09-10T02:38:39.939Z,4.72
2022-09-10T02:41:07.487Z,4.32
2022-09-10T02:43:38.476Z,5.03
2022-09-10T02:46:07.843Z,3.67
2022-09-10T02:48:34.897Z,6.00
2022-09-10T02:51:02.862Z,4.85
2022-09-10T02:53:31.820Z,6.03
2022-09-10T02:56:01.207Z,5.10
2022-09-10T02:58:31.450Z,4.05
2022-09-10T03:01:09.077Z,3.88
2022-09-10T03:03:37.208Z,3.45
2022-09-10T03:06:04.972Z,4.65
2022-09-10T03:08:32.113Z,6.82
2022-09-10T03:10:59.654Z,5.45
2022-09-10T03:13:30.475Z,5.25
2022-09-10T03:16:03.148Z,4.05
2022-09-10T03:18:31.846Z,6.05
2022-09-10T03:21:10.070Z,6.32
2022-09-10T03:23:38.136Z,4.72
2022-09-10T03:26:05.181Z,3.50
2022-09-10T03:28:33.428Z,4.72
2022-09-10T03:31:01.308Z,4.50
2022-09-10T03:33:28.659Z,6.63
2022-09-10T03:35:55.707Z,6.47
2022-09-10T03:38:23.887Z,5.10
2022-09-10T03:40:53.242Z,3.72
2022-09-10T03:43:22.566Z,4.20
2022-09-10T03:45:50.638Z,4.00
2022-09-10T03:48:19.020Z,5.07
2022-09-10T03:50:47.213Z,4.95
2022-09-10T03:53:15.824Z,5.13
2022-09-10T03:55:47.541Z,4.13
2022-09-10T03:58:15.555Z,4.85
2022-09-10T04:00:43.112Z,3.45
2022-09-10T04:03:14.497Z,5.07
2022-09-10T04:05:44.255Z,4.60
2022-09-10T04:08:12.475Z,6.93
2022-09-10T04:10:40.486Z,5.07
2022-09-10T04:13:07.549Z,3.72
2022-09-10T04:15:34.769Z,5.13
2022-09-10T04:18:01.662Z,5.97
2022-09-10T04:20:29.005Z,4.60
2022-09-10T04:22:56.950Z,4.30
2022-09-10T04:25:24.334Z,4.15
2022-09-10T04:27:51.615Z,3.90
2022-09-10T04:30:19.551Z,5.63
2022-09-10T04:32:46.999Z,6.50
2022-09-10T04:35:15.572Z,5.40
2022-09-10T04:37:43.398Z,3.70
2022-09-10T04:40:11.377Z,3.78
2022-09-10T04:42:38.789Z,5.28
2022-09-10T04:45:07.099Z,5.35
2022-09-10T04:47:34.437Z,5.03
2022-09-10T04:50:01.577Z,5.30
2022-09-10T04:52:29.290Z,4.93
2022-09-10T04:54:56.249Z,5.88
2022-09-10T04:57:24.525Z,5.35
2022-09-10T04:59:52.807Z,5.43
2022-09-10T05:02:20.703Z,4.70
2022-09-10T05:04:47.726Z,5.32
2022-09-10T05:07:14.599Z,4.60
2022-09-10T05:09:41.677Z,4.10
2022-09-10T05:12:08.756Z,4.07
2022-09-10T05:14:35.738Z,5.80
2022-09-10T05:17:03.324Z,4.63
2022-09-10T05:19:30.282Z,5.18
2022-09-10T05:21:57.355Z,4.65
2022-09-10T05:24:25.364Z,5.68
2022-09-10T05:26:52.304Z,3.67
2022-09-10T05:29:19.331Z,4.40
2022-09-10T05:31:46.289Z,3.58
2022-09-10T05:34:13.307Z,3.70
2022-09-10T05:36:41.629Z,5.68
2022-09-10T05:39:08.560Z,3.63
2022-09-10T05:41:35.548Z,4.15
2022-09-10T05:44:02.791Z,4.18
2022-09-10T05:46:31.014Z,3.65
2022-09-10T05:48:58.264Z,4.43
2022-09-10T05:51:28.847Z,4.95
2022-09-10T05:53:56.664Z,3.95
2022-09-10T05:56:25.707Z,3.72
2022-09-10T05:58:52.682Z,4.95
2022-09-10T06:01:19.649Z,4.43
2022-09-10T06:03:46.625Z,4.65
2022-09-10T06:06:16.287Z,4.45
2022-09-10T06:08:43.509Z,3.47
2022-09-10T06:11:11.993Z,3.22
2022-09-10T06:13:42.339Z,3.45
2022-09-10T06:16:09.856Z,4.35
2022-09-10T06:18:37.527Z,4.50
2022-09-10T06:24:05.677Z,3.80
2022-09-10T06:26:32.940Z,4.00
2022-09-10T06:28:59.900Z,3.42
2022-09-10T06:31:27.257Z,3.67
2022-09-10T06:33:54.350Z,3.53
2022-09-10T06:36:21.299Z,3.47
2022-09-10T06:38:49.610Z,4.13
2022-09-10T06:41:17.544Z,4.53
2022-09-10T06:43:45.103Z,2.85
2022-09-10T06:46:50.768Z,4.22
2022-09-10T06:49:03.807Z,4.85
2022-09-10T06:51:31.194Z,3.00
2022-09-10T06:53:58.153Z,3.55
2022-09-10T06:56:25.349Z,3.65
2022-09-10T06:58:52.309Z,3.05
2022-09-10T07:01:22.918Z,3.08
2022-09-10T07:03:57.897Z,4.53
2022-09-10T07:06:26.489Z,4.00
2022-09-10T07:08:57.648Z,2.88
2022-09-10T07:11:26.433Z,3.70
2022-09-10T07:13:54.177Z,2.15
2022-09-10T07:16:26.115Z,3.95
2022-09-10T07:18:58.074Z,3.88
2022-09-10T07:21:27.862Z,4.20
2022-09-10T07:24:02.258Z,4.28
2022-09-10T07:26:29.695Z,3.15
2022-09-10T07:28:58.127Z,2.53
2022-09-10T07:31:28.245Z,3.20
2022-09-10T07:33:55.824Z,3.23
2022-09-10T07:36:22.941Z,2.30
2022-09-10T07:38:54.393Z,3.72
2022-09-10T07:41:21.549Z,3.60
2022-09-10T07:43:50.035Z,3.05
2022-09-10T07:46:21.109Z,3.25
2022-09-10T07:48:48.883Z,3.65
2022-09-10T07:51:19.298Z,3.08
2022-09-10T07:53:50.500Z,3.25
2022-09-10T07:56:17.770Z,4.03
2022-09-10T07:58:44.970Z,3.30
2022-09-10T08:01:13.288Z,2.47
2022-09-10T08:03:41.112Z,2.47
2022-09-10T08:06:09.262Z,3.08
2022-09-10T08:08:38.497Z,2.67
2022-09-10T08:11:14.387Z,3.35
2022-09-10T08:13:44.381Z,2.35
2022-09-10T08:16:13.377Z,3.47
2022-09-10T08:18:40.593Z,2.45
2022-09-10T08:21:09.597Z,1.85
2022-09-10T08:23:37.427Z,2.05
2022-09-10T08:26:05.424Z,2.05
2022-09-10T08:28:33.064Z,1.63
2022-09-10T08:31:08.416Z,2.00
2022-09-10T08:33:36.750Z,1.95
2022-09-10T08:36:05.872Z,1.38
2022-09-10T08:38:39.944Z,2.28
2022-09-10T08:41:22.241Z,2.35
2022-09-10T08:44:04.231Z,1.75
2022-09-10T08:46:45.522Z,2.75
2022-09-10T08:49:21.128Z,1.65
2022-09-10T08:51:56.910Z,1.70
2022-09-10T08:57:54.176Z,2.00
2022-09-10T09:00:23.692Z,1.95
2022-09-10T09:03:36.373Z,2.10
2022-09-10T09:06:07.364Z,2.13
2022-09-10T09:08:41.370Z,2.10
2022-09-10T09:11:14.116Z,1.75
2022-09-10T09:14:15.880Z,1.95
2022-09-10T09:17:11.964Z,1.30
2022-09-10T09:19:54.009Z,1.60
2022-09-10T09:22:39.351Z,1.45
2022-09-10T09:25:22.239Z,1.92
2022-09-10T09:27:55.540Z,2.38
2022-09-10T09:30:49.539Z,1.63
2022-09-10T09:33:22.718Z,1.63
2022-09-10T09:35:57.852Z,1.27
2022-09-10T09:38:47.431Z,1.30
2022-09-10T09:41:21.278Z,1.67
2022-09-10T09:44:07.121Z,1.45
2022-09-10T09:46:34.673Z,1.40
2022-09-10T09:49:02.826Z,1.23
2022-09-10T09:51:35.867Z,1.52
2022-09-10T09:57:03.080Z,2.00
2022-09-10T09:59:32.211Z,1.50
2022-09-10T10:02:05.984Z,1.75
2022-09-10T10:04:42.355Z,1.27
2022-09-10T10:07:12.305Z,1.73
2022-09-10T10:09:44.770Z,1.67
2022-09-10T10:12:21.888Z,1.35
2022-09-10T10:14:49.108Z,1.00
2022-09-10T10:17:30.641Z,0.82
2022-09-10T10:20:07.237Z,1.02
2022-09-10T10:22:35.329Z,1.30
2022-09-10T10:25:06.507Z,1.55
2022-09-10T10:27:41.589Z,1.48
2022-09-10T10:30:17.359Z,2.03
2022-09-10T10:32:56.281Z,1.83
2022-09-10T10:35:36.472Z,1.38
2022-09-10T10:40:36.993Z,1.15
2022-09-10T10:43:33.082Z,0.95
2022-09-10T10:46:06.640Z,1.15
2022-09-10T10:49:05.781Z,1.35
2022-09-10T10:52:19.412Z,1.23
2022-09-10T10:55:00.390Z,1.65
2022-09-10T10:57:50.227Z,1.58
2022-09-10T11:00:20.277Z,1.00
2022-09-10T11:03:22.446Z,1.70
2022-09-10T11:05:56.173Z,1.33
2022-09-10T11:08:43.102Z,1.25
2022-09-10T11:11:16.661Z,1.38
2022-09-10T11:13:52.480Z,1.40
2022-09-10T11:16:26.059Z,0.95
2022-09-10T11:18:56.553Z,1.17
2022-09-10T11:21:39.228Z,1.35
2022-09-10T11:24:54.064Z,0.80
2022-09-10T11:27:27.774Z,1.30
2022-09-10T11:30:07.204Z,0.90
2022-09-10T11:32:40.040Z,1.25
2022-09-10T11:35:50.025Z,0.95
2022-09-10T11:41:02.069Z,0.70
2022-09-10T11:43:43.181Z,0.77
2022-09-10T11:46:20.495Z,0.77
2022-09-10T11:49:03.448Z,1.20
2022-09-10T11:51:41.143Z,1.02
2022-09-10T11:54:18.206Z,0.85
2022-09-10T11:57:06.869Z,0.88
2022-09-10T11:59:51.799Z,1.15
2022-09-10T12:02:37.884Z,0.95
2022-09-10T12:05:26.914Z,1.25
2022-09-10T12:08:08.107Z,0.70
2022-09-10T12:10:50.535Z,0.98
2022-09-10T12:13:17.717Z,1.00
2022-09-10T12:15:57.425Z,1.33
2022-09-10T12:18:30.301Z,0.55
2022-09-10T12:21:03.283Z,0.85
2022-09-10T12:23:35.638Z,0.98
2022-09-10T12:26:13.185Z,0.93
2022-09-10T12:28:43.117Z,0.45
2022-09-10T12:31:15.394Z,0.70
2022-09-10T12:33:45.605Z,0.90
2022-09-10T12:36:34.250Z,0.57
2022-09-10T12:39:27.434Z,0.65
2022-09-10T12:41:58.680Z,0.90
2022-09-10T12:44:34.641Z,0.95
2022-09-10T12:47:16.537Z,1.38
2022-09-10T12:49:49.348Z,1.33
2022-09-10T12:52:52.727Z,1.15
2022-09-10T12:55:50.907Z,0.82
2022-09-10T12:58:26.971Z,0.77
2022-09-10T13:00:58.270Z,1.10
2022-09-10T13:03:28.389Z,0.95
2022-09-10T13:05:59.464Z,0.75
2022-09-10T13:08:45.141Z,0.40
2022-09-10T13:11:23.813Z,0.65
2022-09-10T13:13:59.968Z,0.60
2022-09-10T13:16:26.865Z,0.50
2022-09-10T13:19:13.983Z,0.77
2022-09-10T13:21:40.865Z,0.32
2022-09-10T13:24:36.422Z,0.55
2022-09-10T13:27:04.884Z,0.20
2022-09-10T13:29:36.707Z,0.30
2022-09-10T13:32:45.808Z,0.08
2022-09-10T13:35:23.115Z,0.22
2022-09-10T13:38:16.343Z,0.22
2022-09-10T13:40:56.304Z,0.20
2022-09-10T13:43:52.804Z,0.22
2022-09-10T13:46:37.065Z,0.30
2022-09-10T13:49:13.283Z,0.28
2022-09-10T13:52:02.953Z,0.38
2022-09-10T13:54:43.559Z,0.52
2022-09-10T13:57:23.063Z,0.35
2022-09-10T13:59:54.853Z,0.68
2022-09-10T14:02:21.893Z,0.40
2022-09-10T14:04:49.010Z,0.50
2022-09-10T14:07:21.634Z,0.30
2022-09-10T14:09:51.962Z,0.45
2022-09-10T14:12:23.520Z,1.58
2022-09-10T14:14:54.665Z,1.83
2022-09-10T14:20:02.457Z,1.33
2022-09-10T14:22:31.965Z,0.10
2022-09-10T14:25:01.851Z,0.20
2022-09-10T14:27:32.943Z,0.50
2022-09-10T14:32:48.917Z,0.50
2022-09-10T14:35:39.506Z,0.30
2022-09-10T14:38:31.198Z,0.45
2022-09-10T14:41:05.467Z,0.60
2022-09-10T14:43:40.930Z,0.70
2022-09-10T14:46:10.190Z,1.10
2022-09-10T14:48:42.689Z,0.82
2022-09-10T14:51:25.673Z,0.75
2022-09-10T14:53:57.789Z,0.52
2022-09-10T14:56:25.915Z,0.40
2022-09-10T14:59:00.300Z,0.60
2022-09-10T15:01:29.420Z,0.40
2022-09-10T15:03:56.970Z,0.82
2022-09-10T15:06:26.763Z,0.40
2022-09-10T15:08:56.259Z,0.38
2022-09-10T15:11:26.575Z,0.10
2022-09-10T15:13:56.075Z,0.70
2022-09-10T15:16:26.242Z,0.80
2022-09-10T15:18:56.157Z,0.75
2022-09-10T15:21:23.156Z,1.05
2022-09-10T15:23:50.154Z,0.55
2022-09-10T15:26:19.845Z,0.60
2022-09-10T15:28:46.773Z,0.52
2022-09-10T15:31:14.064Z,1.45
2022-09-10T15:33:41.078Z,1.67
2022-09-10T15:36:08.438Z,1.25
2022-09-10T15:38:35.557Z,0.50
2022-09-10T15:41:13.193Z,0.82
2022-09-10T15:43:43.173Z,0.32
2022-09-10T15:46:11.503Z,0.38
2022-09-10T15:48:39.446Z,0.70
2022-09-10T15:51:11.479Z,1.10
2022-09-10T15:53:42.212Z,0.50
2022-09-10T15:56:10.951Z,0.63
2022-09-10T15:58:38.524Z,0.57
2022-09-10T16:01:13.971Z,0.77
2022-09-10T16:03:52.383Z,0.32
2022-09-10T16:06:20.342Z,0.20
2022-09-10T16:08:53.110Z,1.08
2022-09-10T16:11:21.948Z,0.30
2022-09-10T16:13:48.975Z,0.73
2022-09-10T16:16:21.339Z,0.50
2022-09-10T16:18:51.461Z,0.50
2022-09-10T16:21:24.663Z,0.40
2022-09-10T16:23:53.642Z,0.93
2022-09-10T16:26:23.181Z,0.35
2022-09-10T16:28:58.046Z,0.20
2022-09-10T16:31:30.469Z,0.75
2022-09-10T16:34:00.056Z,0.30
2022-09-10T16:36:27.484Z,0.55
2022-09-10T16:38:56.522Z,0.55
2022-09-10T16:41:25.387Z,0.50
2022-09-10T16:43:53.403Z,1.42
2022-09-10T16:46:20.379Z,0.63
2022-09-10T16:48:51.783Z,0.60
2022-09-10T16:51:20.753Z,0.20
2022-09-10T16:54:02.905Z,0.38
2022-09-10T16:56:33.758Z,1.20
2022-09-10T16:59:00.867Z,0.98
2022-09-10T17:01:28.281Z,0.40
2022-09-10T17:03:55.553Z,0.20
2022-09-10T17:06:27.540Z,0.52
2022-09-10T17:08:57.318Z,0.73
2022-09-10T17:11:29.257Z,0.75
2022-09-10T17:14:02.748Z,0.35
2022-09-10T17:16:43.610Z,0.38
2022-09-10T17:19:15.852Z,0.70
2022-09-10T17:21:51.262Z,0.57
2022-09-10T17:24:21.160Z,0.73
2022-09-10T17:26:48.347Z,0.45
2022-09-10T17:29:22.448Z,0.50
2022-09-10T17:31:52.197Z,1.02
2022-09-10T17:34:24.684Z,0.90
2022-09-10T17:36:52.208Z,0.38
2022-09-10T17:39:19.253Z,0.70
2022-09-10T17:41:46.894Z,1.10
2022-09-10T17:44:14.681Z,1.23
2022-09-10T17:46:42.983Z,1.10
2022-09-10T17:49:13.516Z,0.38
2022-09-10T17:51:40.999Z,0.82
2022-09-10T17:54:08.432Z,0.30
2022-09-10T17:56:36.690Z,0.75
2022-09-10T17:59:06.606Z,1.15
2022-09-10T18:01:38.058Z,0.73
2022-09-10T18:04:06.414Z,1.30
2022-09-10T18:06:39.021Z,1.67
2022-09-10T18:09:06.682Z,0.65
2022-09-10T18:11:39.826Z,1.13
2022-09-10T18:14:08.937Z,1.25
2022-09-10T18:16:38.064Z,0.40
2022-09-10T18:19:12.973Z,0.70
2022-09-10T18:21:41.206Z,0.65
2022-09-10T18:24:18.343Z,0.65
2022-09-10T18:26:49.129Z,0.80
2022-09-10T18:29:22.150Z,0.85
2022-09-10T18:31:57.477Z,0.43
2022-09-10T18:34:30.054Z,1.23
2022-09-10T18:36:59.954Z,1.35
2022-09-10T18:39:30.433Z,1.23
2022-09-10T18:41:57.634Z,1.90
2022-09-10T18:44:27.670Z,1.67
2022-09-10T18:46:55.004Z,1.50
2022-09-10T18:49:24.493Z,1.05
2022-09-10T18:51:52.725Z,0.30
2022-09-10T18:54:24.009Z,0.93
2022-09-10T18:56:51.107Z,0.85
2022-09-10T18:59:20.824Z,0.57
2022-09-10T19:01:50.973Z,1.27
2022-09-10T19:04:22.217Z,0.63
2022-09-10T19:09:20.214Z,0.55
2022-09-10T19:11:49.582Z,0.95
2022-09-10T19:14:21.394Z,0.55
2022-09-10T19:16:50.298Z,0.90
2022-09-10T19:19:21.023Z,0.93
2022-09-10T19:22:03.739Z,1.60
2022-09-10T19:24:56.506Z,0.85
2022-09-10T19:27:18.221Z,1.13
2022-09-10T19:29:47.363Z,2.55
2022-09-10T19:32:15.246Z,1.70
2022-09-10T19:34:42.880Z,1.40
2022-09-10T19:37:09.897Z,2.28
2022-09-10T19:39:36.917Z,1.98
2022-09-10T19:42:04.351Z,1.55
2022-09-10T19:44:31.313Z,1.67
2022-09-10T19:46:58.832Z,1.88
2022-09-10T19:49:25.771Z,2.22
2022-09-10T19:51:52.701Z,1.10
2022-09-10T19:54:19.718Z,1.48
2022-09-10T19:56:46.831Z,1.02
2022-09-10T19:59:14.659Z,1.60
2022-09-10T20:01:42.691Z,2.08
2022-09-10T20:04:12.757Z,1.67
2022-09-10T20:06:39.792Z,2.10
2022-09-10T20:09:08.690Z,1.65
2022-09-10T20:11:36.252Z,1.52
2022-09-10T20:14:14.327Z,1.70
2022-09-10T20:16:43.800Z,1.15
2022-09-10T20:19:13.838Z,1.60
2022-09-10T20:21:42.593Z,1.83
2022-09-10T20:24:10.417Z,1.30
2022-09-10T20:26:38.590Z,1.27
2022-09-10T20:29:12.621Z,0.85
2022-09-10T20:31:41.275Z,1.52
2022-09-10T20:34:11.882Z,1.30
2022-09-10T20:36:41.823Z,1.35
2022-09-10T20:39:13.737Z,1.13
2022-09-10T20:41:41.154Z,2.08
2022-09-10T20:44:10.014Z,1.48
2022-09-10T20:46:38.068Z,0.80
2022-09-10T20:49:05.127Z,1.38
2022-09-10T20:51:35.589Z,1.60
2022-09-10T20:54:04.337Z,1.75
2022-09-10T20:56:32.853Z,0.82
2022-09-10T20:59:01.616Z,0.90
2022-09-10T21:01:31.260Z,1.35
2022-09-10T21:04:06.032Z,1.15
2022-09-10T21:06:34.404Z,1.27
2022-09-10T21:09:02.800Z,1.00
2022-09-10T21:11:31.628Z,2.40
2022-09-10T21:14:01.059Z,0.93
2022-09-10T21:16:32.406Z,1.30
2022-09-10T21:19:01.528Z,1.83
2022-09-10T21:21:30.496Z,1.25
2022-09-10T21:23:59.874Z,0.90
2022-09-10T21:26:29.112Z,0.80
2022-09-10T21:29:02.329Z,1.20
2022-09-10T21:31:30.634Z,1.05
2022-09-10T21:34:02.706Z,1.15
2022-09-10T21:36:31.478Z,1.17
2022-09-10T21:39:00.396Z,1.55
2022-09-10T21:41:29.495Z,1.13
2022-09-10T21:43:56.403Z,1.35
2022-09-10T21:46:24.096Z,1.55
2022-09-10T21:48:51.275Z,1.52
2022-09-10T21:51:20.244Z,2.65
2022-09-10T21:53:47.768Z,1.27
2022-09-10T21:56:16.961Z,1.23
2022-09-10T21:58:46.881Z,1.95
2022-09-10T22:01:22.694Z,1.27
2022-09-10T22:03:50.781Z,1.45
2022-09-10T22:06:21.409Z,2.13
2022-09-10T22:08:52.870Z,1.48
2022-09-10T22:11:23.458Z,1.13
2022-09-10T22:13:52.812Z,1.80
2022-09-10T22:16:20.984Z,2.03
2022-09-10T22:18:48.407Z,1.48
2022-09-10T22:21:17.611Z,1.58
2022-09-10T22:23:45.125Z,2.05
2022-09-10T22:26:15.183Z,2.42
2022-09-10T22:28:43.098Z,1.05
2022-09-10T22:31:15.730Z,1.77
2022-09-10T22:33:45.135Z,2.08
2022-09-10T22:36:14.710Z,1.42
2022-09-10T22:38:43.217Z,1.05
2022-09-10T22:41:10.773Z,1.80
2022-09-10T22:43:38.642Z,1.33
2022-09-10T22:46:07.360Z,2.25
2022-09-10T22:48:36.521Z,1.55
2022-09-10T22:51:05.451Z,1.95
2022-09-10T22:53:33.585Z,1.85
2022-09-10T22:56:02.326Z,2.42
2022-09-10T22:58:29.396Z,1.25
2022-09-10T23:00:56.606Z,1.20
2022-09-10T23:03:23.607Z,1.50
2022-09-10T23:05:50.601Z,2.33
2022-09-10T23:08:17.690Z,1.77
2022-09-10T23:10:44.643Z,1.02
2022-09-10T23:13:11.590Z,1.67
2022-09-10T23:15:39.237Z,1.50
2022-09-10T23:18:06.225Z,1.50
2022-09-10T23:20:33.129Z,1.38
2022-09-10T23:23:00.058Z,2.42
2022-09-10T23:25:27.064Z,1.42
2022-09-10T23:27:55.116Z,1.60
2022-09-10T23:30:23.120Z,1.38
2022-09-10T23:32:50.384Z,2.78
2022-09-10T23:35:17.915Z,1.95
2022-09-10T23:37:45.017Z,1.35
2022-09-10T23:40:13.487Z,1.23
2022-09-10T23:42:40.387Z,1.58
2022-09-10T23:45:07.944Z,2.22
2022-09-10T23:47:35.012Z,1.38
2022-09-10T23:50:02.064Z,2.42
2022-09-10T23:52:29.720Z,1.90
2022-09-10T23:54:56.896Z,1.75
2022-09-10T23:57:23.949Z,2.33
2022-09-10T23:59:50.942Z,2.13
